createdAt,value
2023-05-03T00:01:14.497Z,96617.50
2023-05-03T00:03:40.999Z,96614.56
2023-05-03T00:06:14.990Z,96620.50
2023-05-03T00:08:42.660Z,96610.81
2023-05-03T00:11:09.966Z,96617.09
2023-05-03T00:13:36.564Z,96610.72
2023-05-03T00:16:03.080Z,96610.72
2023-05-03T00:18:30.590Z,96613.25
2023-05-03T00:20:58.268Z,96605.94
2023-05-03T00:23:24.908Z,96610.53
2023-05-03T00:25:55.235Z,96600.75
2023-05-03T00:28:22.218Z,96610.44
2023-05-03T00:30:48.952Z,96610.22
2023-05-03T00:33:16.780Z,96606.56
2023-05-03T00:35:44.223Z,96607.81
2023-05-03T00:38:11.301Z,96603.38
2023-05-03T00:40:37.770Z,96611.25
2023-05-03T00:43:04.266Z,96609.66
2023-05-03T00:45:33.401Z,96597.34
2023-05-03T00:48:00.540Z,96596.56
2023-05-03T00:50:27.178Z,96590.50
2023-05-03T00:52:54.011Z,96606.09
2023-05-03T00:55:20.767Z,96599.59
2023-05-03T00:57:47.235Z,96597.00
2023-05-03T01:00:14.507Z,96598.38
2023-05-03T01:02:41.191Z,96593.59
2023-05-03T01:05:08.068Z,96599.31
2023-05-03T01:07:55.579Z,96589.44
2023-05-03T01:10:44.221Z,96586.63
2023-05-03T01:13:32.136Z,96582.09
2023-05-03T01:16:10.845Z,96584.59
2023-05-03T01:18:49.034Z,96583.13
2023-05-03T01:21:18.561Z,96584.16
2023-05-03T01:23:56.841Z,96591.38
2023-05-03T01:26:24.318Z,96587.84
2023-05-03T01:28:51.486Z,96593.66
2023-05-03T01:31:41.508Z,96595.72
2023-05-03T01:34:17.149Z,96599.84
2023-05-03T01:36:45.053Z,96603.13
2023-05-03T01:39:26.921Z,96600.16
2023-05-03T01:41:54.762Z,96589.38
2023-05-03T01:44:23.069Z,96596.31
2023-05-03T01:46:49.901Z,96602.56
2023-05-03T01:49:16.520Z,96606.78
2023-05-03T01:51:43.110Z,96604.16
2023-05-03T01:54:11.286Z,96590.97
2023-05-03T01:56:38.088Z,96599.97
2023-05-03T01:59:04.797Z,96602.00
2023-05-03T02:01:31.403Z,96600.41
2023-05-03T02:03:58.080Z,96598.03
2023-05-03T02:06:26.108Z,96601.53
2023-05-03T02:08:53.369Z,96607.91
2023-05-03T02:11:21.719Z,96604.47
2023-05-03T02:13:52.700Z,96603.44
2023-05-03T02:16:19.320Z,96596.94
2023-05-03T02:18:46.552Z,96594.22
2023-05-03T02:21:14.072Z,96598.19
2023-05-03T02:23:40.681Z,96587.34
2023-05-03T02:26:08.041Z,96603.06
2023-05-03T02:28:34.889Z,96597.47
2023-05-03T02:31:02.361Z,96603.03
2023-05-03T02:33:29.003Z,96599.16
2023-05-03T02:35:55.950Z,96607.94
2023-05-03T02:38:23.362Z,96611.31
2023-05-03T02:40:50.748Z,96599.59
2023-05-03T02:43:17.469Z,96595.56
2023-05-03T02:45:44.533Z,96594.00
2023-05-03T02:48:12.509Z,96599.03
2023-05-03T02:50:39.955Z,96593.53
2023-05-03T02:53:06.933Z,96591.88
2023-05-03T02:55:34.662Z,96586.63
2023-05-03T02:58:02.027Z,96594.25
2023-05-03T03:00:28.866Z,96598.69
2023-05-03T03:02:55.875Z,96598.22
2023-05-03T03:05:22.828Z,96604.34
2023-05-03T03:07:51.445Z,96602.28
2023-05-03T03:10:18.133Z,96607.63
2023-05-03T03:12:45.265Z,96612.88
2023-05-03T03:15:22.141Z,96606.25
2023-05-03T03:17:48.803Z,96608.88
2023-05-03T03:20:15.925Z,96604.75
2023-05-03T03:22:47.122Z,96602.38
2023-05-03T03:25:13.734Z,96599.06
2023-05-03T03:27:40.396Z,96600.00
2023-05-03T03:30:09.264Z,96595.25
2023-05-03T03:32:42.446Z,96594.44
2023-05-03T03:35:14.202Z,96604.00
2023-05-03T03:37:41.033Z,96601.91
2023-05-03T03:40:08.520Z,96601.59
2023-05-03T03:42:37.572Z,96602.06
2023-05-03T03:45:04.862Z,96605.94
2023-05-03T03:47:31.452Z,96606.50
2023-05-03T03:50:01.887Z,96606.03
2023-05-03T03:52:30.400Z,96607.31
2023-05-03T03:54:57.084Z,96609.28
2023-05-03T03:57:26.046Z,96611.91
2023-05-03T03:59:52.798Z,96609.16
2023-05-03T04:02:19.413Z,96615.09
2023-05-03T04:04:46.764Z,96614.31
2023-05-03T04:07:15.393Z,96613.34
2023-05-03T04:09:42.371Z,96606.78
2023-05-03T04:12:09.403Z,96605.75
2023-05-03T04:14:36.116Z,96616.38
2023-05-03T04:17:03.159Z,96615.59
2023-05-03T04:19:29.927Z,96622.91
2023-05-03T04:21:56.862Z,96621.25
2023-05-03T04:24:23.981Z,96628.16
2023-05-03T04:26:51.572Z,96622.22
2023-05-03T04:29:25.052Z,96630.84
2023-05-03T04:31:51.896Z,96629.25
2023-05-03T04:34:19.037Z,96629.13
2023-05-03T04:36:49.035Z,96628.81
2023-05-03T04:39:16.412Z,96632.91
2023-05-03T04:41:45.671Z,96637.19
2023-05-03T04:44:14.356Z,96638.00
2023-05-03T04:46:43.392Z,96643.63
2023-05-03T04:49:10.177Z,96647.84
2023-05-03T04:51:36.925Z,96645.31
2023-05-03T04:54:03.521Z,96645.81
2023-05-03T04:56:31.240Z,96647.25
2023-05-03T04:59:08.569Z,96648.34
2023-05-03T05:01:36.895Z,96645.56
2023-05-03T05:04:05.363Z,96652.00
2023-05-03T05:06:38.450Z,96642.94
2023-05-03T05:09:07.474Z,96663.28
2023-05-03T05:11:34.660Z,96662.28
2023-05-03T05:14:01.271Z,96660.28
2023-05-03T05:16:27.867Z,96657.50
2023-05-03T05:18:54.433Z,96650.44
2023-05-03T05:21:24.562Z,96659.91
2023-05-03T05:23:51.125Z,96658.38
2023-05-03T05:26:17.655Z,96665.75
2023-05-03T05:28:44.840Z,96671.13
2023-05-03T05:31:11.593Z,96670.16
2023-05-03T05:33:38.981Z,96672.28
2023-05-03T05:36:06.190Z,96666.81
2023-05-03T05:38:33.883Z,96672.38
2023-05-03T05:41:01.160Z,96672.44
2023-05-03T05:43:27.686Z,96671.59
2023-05-03T05:45:55.045Z,96678.44
2023-05-03T05:48:22.768Z,96680.34
2023-05-03T05:50:49.410Z,96680.66
2023-05-03T05:53:16.423Z,96682.25
2023-05-03T05:55:50.153Z,96675.47
2023-05-03T05:58:17.094Z,96676.50
2023-05-03T06:00:49.062Z,96684.94
2023-05-03T06:03:16.701Z,96682.97
2023-05-03T06:05:43.518Z,96680.38
2023-05-03T06:08:10.610Z,96687.78
2023-05-03T06:10:38.184Z,96678.69
2023-05-03T06:13:04.861Z,96692.13
2023-05-03T06:15:32.726Z,96690.59
2023-05-03T06:17:59.229Z,96696.66
2023-05-03T06:20:26.210Z,96687.75
2023-05-03T06:22:53.539Z,96693.84
2023-05-03T06:25:20.658Z,96694.41
2023-05-03T06:27:49.074Z,96698.06
2023-05-03T06:30:18.128Z,96703.34
2023-05-03T06:32:47.547Z,96699.16
2023-05-03T06:35:14.309Z,96705.41
2023-05-03T06:37:40.860Z,96705.41
2023-05-03T06:40:07.928Z,96702.38
2023-05-03T06:42:36.413Z,96701.63
2023-05-03T06:45:12.700Z,96688.22
2023-05-03T06:47:42.514Z,96691.19
2023-05-03T06:50:09.910Z,96689.16
2023-05-03T06:52:36.424Z,96696.31
2023-05-03T06:55:04.686Z,96700.78
2023-05-03T06:57:31.178Z,96700.16
2023-05-03T06:59:57.723Z,96694.22
2023-05-03T07:02:25.869Z,96709.59
2023-05-03T07:04:52.502Z,96708.84
2023-05-03T07:07:19.088Z,96689.66
2023-05-03T07:09:45.619Z,96703.22
2023-05-03T07:12:12.162Z,96702.72
2023-05-03T07:14:39.964Z,96704.78
2023-05-03T07:17:06.617Z,96707.84
2023-05-03T07:19:33.292Z,96685.91
2023-05-03T07:21:59.840Z,96677.47
2023-05-03T07:24:26.380Z,96666.97
2023-05-03T07:26:53.664Z,96684.53
2023-05-03T07:29:20.582Z,96676.91
2023-05-03T07:31:47.273Z,96684.91
2023-05-03T07:34:14.072Z,96684.72
2023-05-03T07:36:40.736Z,96668.28
2023-05-03T07:39:07.433Z,96689.78
2023-05-03T07:41:33.959Z,96695.22
2023-05-03T07:44:00.603Z,96694.31
2023-05-03T07:46:27.141Z,96680.34
2023-05-03T07:48:53.808Z,96690.13
2023-05-03T07:51:21.041Z,96693.72
2023-05-03T07:53:48.061Z,96681.50
2023-05-03T07:56:14.524Z,96695.34
2023-05-03T07:58:41.742Z,96671.78
2023-05-03T08:01:10.087Z,96703.72
2023-05-03T08:03:36.723Z,96694.00
2023-05-03T08:06:03.629Z,96679.47
2023-05-03T08:08:32.130Z,96685.56
2023-05-03T08:10:58.697Z,96668.59
2023-05-03T08:13:25.221Z,96686.13
2023-05-03T08:15:51.970Z,96688.16
2023-05-03T08:18:18.495Z,96669.41
2023-05-03T08:20:45.197Z,96665.84
2023-05-03T08:23:11.723Z,96671.94
2023-05-03T08:25:38.232Z,96685.38
2023-05-03T08:28:04.767Z,96669.56
2023-05-03T08:30:31.537Z,96663.06
2023-05-03T08:32:58.093Z,96669.03
2023-05-03T08:35:25.332Z,96658.41
2023-05-03T08:37:51.800Z,96684.25
2023-05-03T08:40:22.323Z,96658.63
2023-05-03T08:42:50.078Z,96671.38
2023-05-03T08:45:17.239Z,96683.28
2023-05-03T08:47:45.335Z,96665.38
2023-05-03T08:50:13.871Z,96672.28
2023-05-03T08:52:42.482Z,96653.00
2023-05-03T08:55:09.913Z,96686.06
2023-05-03T08:57:36.993Z,96683.22
2023-05-03T09:00:14.372Z,96683.34
2023-05-03T09:02:41.291Z,96670.38
2023-05-03T09:05:17.314Z,96692.59
2023-05-03T09:08:07.055Z,96695.22
2023-05-03T09:10:37.829Z,96682.28
2023-05-03T09:13:04.417Z,96674.63
2023-05-03T09:15:31.173Z,96676.19
2023-05-03T09:18:12.451Z,96703.16
2023-05-03T09:20:40.877Z,96690.44
2023-05-03T09:23:08.946Z,96704.75
2023-05-03T09:25:52.403Z,96709.22
2023-05-03T09:28:20.101Z,96704.25
2023-05-03T09:30:48.206Z,96709.31
2023-05-03T09:33:22.361Z,96660.97
2023-05-03T09:35:59.412Z,96704.28
2023-05-03T09:38:34.297Z,96670.22
2023-05-03T09:41:01.522Z,96675.75
2023-05-03T09:43:27.994Z,96686.06
2023-05-03T09:46:08.515Z,96671.53
2023-05-03T09:48:39.758Z,96683.19
2023-05-03T09:51:06.839Z,96666.81
2023-05-03T09:53:34.778Z,96668.66
2023-05-03T09:56:06.100Z,96695.09
2023-05-03T09:58:35.083Z,96690.34
2023-05-03T10:01:01.808Z,96667.09
2023-05-03T10:03:51.932Z,96669.50
2023-05-03T10:06:44.027Z,96686.41
2023-05-03T10:09:29.703Z,96685.09
2023-05-03T10:12:00.172Z,96670.59
2023-05-03T10:14:26.728Z,96672.44
2023-05-03T10:17:02.400Z,96670.63
2023-05-03T10:19:28.786Z,96684.34
2023-05-03T10:22:03.345Z,96687.47
2023-05-03T10:24:30.158Z,96661.09
2023-05-03T10:26:57.559Z,96669.25
2023-05-03T10:29:37.256Z,96679.53
2023-05-03T10:32:05.328Z,96677.91
2023-05-03T10:34:33.639Z,96669.44
2023-05-03T10:37:10.204Z,96663.59
2023-05-03T10:39:37.669Z,96675.19
2023-05-03T10:42:08.807Z,96673.53
2023-05-03T10:44:40.517Z,96662.31
2023-05-03T10:47:11.400Z,96659.03
2023-05-03T10:49:37.852Z,96655.34
2023-05-03T10:52:36.076Z,96677.25
2023-05-03T10:55:03.077Z,96663.28
2023-05-03T10:57:32.125Z,96655.94
2023-05-03T10:59:58.966Z,96668.66
2023-05-03T11:02:36.054Z,96658.28
2023-05-03T11:05:09.285Z,96620.56
2023-05-03T11:07:35.882Z,96628.84
2023-05-03T11:10:16.320Z,96650.09
2023-05-03T11:12:42.746Z,96645.09
2023-05-03T11:15:11.130Z,96645.66
2023-05-03T11:17:41.005Z,96629.91
2023-05-03T11:20:10.891Z,96615.47
2023-05-03T11:22:37.767Z,96648.66
2023-05-03T11:25:04.623Z,96649.91
2023-05-03T11:27:31.233Z,96640.75
2023-05-03T11:29:59.302Z,96655.00
2023-05-03T11:32:27.518Z,96646.63
2023-05-03T11:34:54.085Z,96639.31
2023-05-03T11:37:20.538Z,96635.59
2023-05-03T11:39:47.807Z,96599.66
2023-05-03T11:42:14.305Z,96614.28
2023-05-03T11:44:41.057Z,96608.63
2023-05-03T11:47:09.158Z,96596.19
2023-05-03T11:49:35.717Z,96629.63
2023-05-03T11:52:02.229Z,96635.38
2023-05-03T11:54:30.033Z,96618.94
2023-05-03T11:56:57.934Z,96634.44
2023-05-03T11:59:39.067Z,96610.91
2023-05-03T12:02:07.836Z,96625.63
2023-05-03T12:04:35.056Z,96604.03
2023-05-03T12:07:03.601Z,96627.56
2023-05-03T12:09:31.725Z,96612.66
2023-05-03T12:11:59.584Z,96598.22
2023-05-03T12:14:29.490Z,96607.75
2023-05-03T12:16:56.985Z,96591.56
2023-05-03T12:19:31.378Z,96607.63
2023-05-03T12:24:33.515Z,96578.50
2023-05-03T12:27:02.709Z,96586.66
2023-05-03T12:29:34.069Z,96591.31
2023-05-03T12:32:03.449Z,96596.41
2023-05-03T12:34:34.623Z,96593.91
2023-05-03T12:37:04.940Z,96586.59
2023-05-03T12:39:32.968Z,96586.31
2023-05-03T12:44:46.023Z,96573.19
2023-05-03T12:47:19.554Z,96578.50
2023-05-03T12:49:54.381Z,96577.06
2023-05-03T12:52:37.112Z,96571.44
2023-05-03T12:55:10.452Z,96575.31
2023-05-03T12:57:38.132Z,96579.19
2023-05-03T13:00:14.528Z,96562.69
2023-05-03T13:03:21.230Z,96571.00
2023-05-03T13:05:35.198Z,96568.25
2023-05-03T13:08:09.419Z,96562.88
2023-05-03T13:10:39.006Z,96545.97
2023-05-03T13:13:06.740Z,96549.63
2023-05-03T13:15:36.536Z,96557.53
2023-05-03T13:18:06.563Z,96541.72
2023-05-03T13:20:34.719Z,96538.31
2023-05-03T13:23:01.264Z,96539.41
2023-05-03T13:25:27.783Z,96546.13
2023-05-03T13:27:54.487Z,96532.91
2023-05-03T13:30:22.207Z,96544.78
2023-05-03T13:32:51.875Z,96535.13
2023-05-03T13:35:18.489Z,96518.19
2023-05-03T13:37:45.006Z,96524.50
2023-05-03T13:40:12.259Z,96525.50
2023-05-03T13:42:38.707Z,96520.34
2023-05-03T13:45:05.502Z,96518.41
2023-05-03T13:47:47.253Z,96519.69
2023-05-03T13:50:18.840Z,96522.81
2023-05-03T13:52:45.495Z,96498.53
2023-05-03T13:55:11.948Z,96524.59
2023-05-03T13:57:38.432Z,96511.88
2023-05-03T14:00:07.280Z,96517.59
2023-05-03T14:02:33.992Z,96514.09
2023-05-03T14:05:00.784Z,96513.59
2023-05-03T14:07:27.263Z,96513.38
2023-05-03T14:09:53.702Z,96513.84
2023-05-03T14:12:20.239Z,96512.28
2023-05-03T14:14:46.740Z,96515.03
2023-05-03T14:17:13.351Z,96493.41
2023-05-03T14:19:39.898Z,96505.72
2023-05-03T14:22:06.671Z,96492.50
2023-05-03T14:24:33.186Z,96518.19
2023-05-03T14:27:00.381Z,96486.63
2023-05-03T14:29:27.260Z,96495.75
2023-05-03T14:31:54.462Z,96494.75
2023-05-03T14:34:21.003Z,96477.16
2023-05-03T14:36:47.503Z,96491.00
2023-05-03T14:39:16.926Z,96495.53
2023-05-03T14:41:46.286Z,96478.19
2023-05-03T14:44:12.835Z,96490.22
2023-05-03T14:46:39.616Z,96489.25
2023-05-03T14:49:07.024Z,96479.75
2023-05-03T14:51:33.658Z,96487.69
2023-05-03T14:54:00.382Z,96471.44
2023-05-03T14:56:27.780Z,96478.09
2023-05-03T14:58:54.204Z,96468.84
2023-05-03T15:01:21.863Z,96483.69
2023-05-03T15:03:49.547Z,96482.69
2023-05-03T15:06:23.598Z,96449.59
2023-05-03T15:08:51.339Z,96456.72
2023-05-03T15:11:18.013Z,96470.03
2023-05-03T15:13:44.504Z,96468.03
2023-05-03T15:16:11.371Z,96467.16
2023-05-03T15:18:37.890Z,96480.56
2023-05-03T15:21:04.667Z,96458.69
2023-05-03T15:23:31.110Z,96460.28
2023-05-03T15:25:58.151Z,96465.69
2023-05-03T15:28:24.610Z,96469.31
2023-05-03T15:30:51.139Z,96484.56
2023-05-03T15:33:17.765Z,96481.88
2023-05-03T15:35:44.242Z,96469.47
2023-05-03T15:38:10.717Z,96467.06
2023-05-03T15:40:37.169Z,96463.63
2023-05-03T15:43:03.670Z,96485.00
2023-05-03T15:45:30.255Z,96486.84
2023-05-03T15:47:57.076Z,96487.81
2023-05-03T15:50:23.721Z,96481.47
2023-05-03T15:52:50.233Z,96489.72
2023-05-03T15:55:19.108Z,96472.53
2023-05-03T15:57:45.619Z,96473.78
2023-05-03T16:00:12.896Z,96484.28
2023-05-03T16:02:40.333Z,96493.34
2023-05-03T16:05:07.240Z,96483.25
2023-05-03T16:07:33.923Z,96474.72
2023-05-03T16:10:00.814Z,96466.34
2023-05-03T16:12:27.781Z,96481.13
2023-05-03T16:14:54.763Z,96481.94
2023-05-03T16:17:22.014Z,96476.56
2023-05-03T16:19:48.701Z,96475.91
2023-05-03T16:22:15.399Z,96455.75
2023-05-03T16:24:41.861Z,96464.13
2023-05-03T16:27:08.414Z,96471.50
2023-05-03T16:29:36.975Z,96454.19
2023-05-03T16:32:04.219Z,96466.78
2023-05-03T16:34:31.432Z,96455.88
2023-05-03T16:36:57.873Z,96449.00
2023-05-03T16:39:24.301Z,96471.72
2023-05-03T16:41:50.759Z,96474.66
2023-05-03T16:44:19.158Z,96464.00
2023-05-03T16:46:46.579Z,96462.06
2023-05-03T16:49:12.998Z,96468.38
2023-05-03T16:51:40.796Z,96463.84
2023-05-03T16:54:07.308Z,96448.72
2023-05-03T16:56:33.870Z,96439.66
2023-05-03T16:59:00.297Z,96441.13
2023-05-03T17:01:26.765Z,96469.53
2023-05-03T17:03:53.496Z,96468.88
2023-05-03T17:06:20.321Z,96450.47
2023-05-03T17:08:46.829Z,96464.06
2023-05-03T17:11:14.413Z,96460.91
2023-05-03T17:13:41.485Z,96462.97
2023-05-03T17:16:09.993Z,96455.81
2023-05-03T17:18:37.494Z,96471.56
2023-05-03T17:21:04.794Z,96469.19
2023-05-03T17:23:35.958Z,96459.63
2023-05-03T17:26:04.346Z,96470.47
2023-05-03T17:28:32.558Z,96472.13
2023-05-03T17:30:59.620Z,96458.94
2023-05-03T17:33:26.716Z,96462.19
2023-05-03T17:35:55.510Z,96471.94
2023-05-03T17:38:23.091Z,96475.69
2023-05-03T17:40:49.659Z,96471.56
2023-05-03T17:43:17.547Z,96471.44
2023-05-03T17:45:45.449Z,96475.06
2023-05-03T17:48:14.829Z,96467.19
2023-05-03T17:50:46.112Z,96457.22
2023-05-03T17:53:12.696Z,96474.16
2023-05-03T17:55:39.172Z,96471.69
2023-05-03T17:58:06.422Z,96473.00
2023-05-03T18:00:33.600Z,96483.44
2023-05-03T18:03:00.280Z,96488.03
2023-05-03T18:05:27.313Z,96478.66
2023-05-03T18:07:54.037Z,96464.25
2023-05-03T18:10:20.734Z,96475.06
2023-05-03T18:12:47.193Z,96471.53
2023-05-03T18:15:15.482Z,96472.00
2023-05-03T18:17:42.731Z,96465.16
2023-05-03T18:20:09.697Z,96465.50
2023-05-03T18:22:37.357Z,96464.47
2023-05-03T18:25:07.339Z,96479.13
2023-05-03T18:27:36.658Z,96475.59
2023-05-03T18:30:06.984Z,96476.50
2023-05-03T18:32:34.073Z,96478.81
2023-05-03T18:35:00.740Z,96476.78
2023-05-03T18:37:27.711Z,96485.38
2023-05-03T18:39:54.220Z,96492.88
2023-05-03T18:42:21.316Z,96483.94
2023-05-03T18:44:48.208Z,96494.66
2023-05-03T18:47:16.182Z,96484.28
2023-05-03T18:49:46.917Z,96483.28
2023-05-03T18:52:13.383Z,96482.88
2023-05-03T18:54:39.965Z,96501.50
2023-05-03T18:57:06.512Z,96518.00
2023-05-03T18:59:33.028Z,96514.91
2023-05-03T19:01:59.510Z,96520.66
2023-05-03T19:04:26.042Z,96513.59
2023-05-03T19:06:52.808Z,96485.88
2023-05-03T19:09:19.449Z,96509.56
2023-05-03T19:11:46.003Z,96503.25
2023-05-03T19:14:12.959Z,96511.72
2023-05-03T19:16:39.488Z,96509.31
2023-05-03T19:19:06.864Z,96512.50
2023-05-03T19:21:34.880Z,96514.22
2023-05-03T19:24:01.346Z,96515.63
2023-05-03T19:26:27.935Z,96503.50
2023-05-03T19:28:54.352Z,96519.84
2023-05-03T19:31:20.863Z,96509.16
2023-05-03T19:33:47.488Z,96515.47
2023-05-03T19:36:14.763Z,96499.13
2023-05-03T19:38:41.376Z,96507.59
2023-05-03T19:41:11.941Z,96510.50
2023-05-03T19:43:39.068Z,96495.50
2023-05-03T19:46:06.190Z,96516.03
2023-05-03T19:48:33.044Z,96507.41
2023-05-03T19:51:00.209Z,96504.19
2023-05-03T19:53:27.924Z,96513.25
2023-05-03T19:56:02.029Z,96513.78
2023-05-03T19:58:28.970Z,96514.59
2023-05-03T20:00:58.650Z,96503.34
2023-05-03T20:03:25.380Z,96524.13
2023-05-03T20:05:51.842Z,96514.59
2023-05-03T20:08:18.300Z,96504.34
2023-05-03T20:10:46.392Z,96515.25
2023-05-03T20:13:13.248Z,96525.63
2023-05-03T20:15:39.825Z,96525.38
2023-05-03T20:18:06.418Z,96518.78
2023-05-03T20:20:32.992Z,96502.00
2023-05-03T20:22:59.434Z,96512.25
2023-05-03T20:25:26.032Z,96518.31
2023-05-03T20:27:52.604Z,96519.38
2023-05-03T20:30:19.297Z,96506.22
2023-05-03T20:32:46.021Z,96513.31
2023-05-03T20:35:13.518Z,96502.53
2023-05-03T20:37:40.886Z,96516.50
2023-05-03T20:40:10.553Z,96519.19
2023-05-03T20:42:39.670Z,96517.84
2023-05-03T20:45:07.636Z,96516.28
2023-05-03T20:47:35.509Z,96520.00
2023-05-03T20:50:03.003Z,96505.25
2023-05-03T20:52:30.511Z,96512.41
2023-05-03T20:54:57.767Z,96508.75
2023-05-03T20:57:38.941Z,96527.47
2023-05-03T21:00:07.387Z,96512.97
2023-05-03T21:02:37.862Z,96514.56
2023-05-03T21:05:05.513Z,96524.09
2023-05-03T21:07:32.877Z,96527.25
2023-05-03T21:10:02.812Z,96524.38
2023-05-03T21:12:30.674Z,96518.09
2023-05-03T21:15:00.374Z,96509.66
2023-05-03T21:17:27.749Z,96503.84
2023-05-03T21:19:57.416Z,96501.00
2023-05-03T21:22:25.021Z,96493.09
2023-05-03T21:24:52.036Z,96476.50
2023-05-03T21:27:20.616Z,96508.69
2023-05-03T21:29:48.205Z,96503.69
2023-05-03T21:32:15.323Z,96495.50
2023-05-03T21:34:48.315Z,96490.28
2023-05-03T21:37:18.946Z,96486.06
2023-05-03T21:40:01.548Z,96486.84
2023-05-03T21:42:33.713Z,96470.50
2023-05-03T21:45:03.942Z,96468.41
2023-05-03T21:47:31.413Z,96476.31
2023-05-03T21:49:59.360Z,96477.34
2023-05-03T21:52:29.388Z,96455.47
2023-05-03T21:54:57.667Z,96474.72
2023-05-03T21:57:25.333Z,96485.28
2023-05-03T21:59:54.201Z,96458.41
2023-05-03T22:02:22.730Z,96480.03
2023-05-03T22:04:50.362Z,96478.75
2023-05-03T22:07:17.619Z,96478.72
2023-05-03T22:09:48.335Z,96465.31
2023-05-03T22:12:23.255Z,96475.31
2023-05-03T22:14:56.578Z,96474.25
2023-05-03T22:17:25.068Z,96482.16
2023-05-03T22:19:55.072Z,96478.50
2023-05-03T22:22:22.326Z,96468.47
2023-05-03T22:24:51.197Z,96470.84
2023-05-03T22:27:24.205Z,96474.53
2023-05-03T22:29:51.384Z,96476.38
2023-05-03T22:32:21.962Z,96475.31
2023-05-03T22:34:51.965Z,96467.94
2023-05-03T22:37:19.445Z,96459.22
2023-05-03T22:39:52.329Z,96465.28
2023-05-03T22:42:26.956Z,96464.22
2023-05-03T22:44:55.784Z,96453.91
2023-05-03T22:47:24.580Z,96456.25
2023-05-03T22:49:54.448Z,96465.47
2023-05-03T22:52:30.420Z,96442.22
2023-05-03T22:55:03.686Z,96462.00
2023-05-03T22:57:33.202Z,96463.03
2023-05-03T23:00:02.537Z,96448.22
2023-05-03T23:02:33.329Z,96442.16
2023-05-03T23:05:02.979Z,96459.81
2023-05-03T23:07:31.772Z,96453.75
2023-05-03T23:10:04.066Z,96458.22
2023-05-03T23:12:31.624Z,96446.53
2023-05-03T23:14:58.871Z,96437.00
2023-05-03T23:17:26.205Z,96456.53
2023-05-03T23:19:53.764Z,96456.00
2023-05-03T23:22:22.011Z,96457.53
2023-05-03T23:24:48.951Z,96459.34
2023-05-03T23:27:16.199Z,96460.59
2023-05-03T23:29:43.702Z,96450.25
2023-05-03T23:32:12.491Z,96456.31
2023-05-03T23:34:39.809Z,96443.63
2023-05-03T23:37:09.627Z,96449.09
2023-05-03T23:39:36.771Z,96450.22
2023-05-03T23:42:09.995Z,96446.25
2023-05-03T23:44:53.050Z,96422.69
2023-05-03T23:47:34.857Z,96455.09
2023-05-03T23:50:02.038Z,96436.38
2023-05-03T23:52:32.250Z,96449.84
2023-05-03T23:54:59.572Z,96411.75
2023-05-03T23:57:27.289Z,96439.13
2023-05-03T23:59:54.550Z,96442.25
